sensor_id;sensor_type;location;lat;lon;timestamp;P1;durP1;ratioP1;P2;durP2;ratioP2
45578;SDS011;31293;51.390;12.254;2024-01-10T00:00:56;50.80;;;23.25;;
45578;SDS011;31293;51.390;12.254;2024-01-10T00:02:58;53.70;;;23.73;;
45578;SDS011;31293;51.390;12.254;2024-01-10T00:05:00;63.22;;;26.10;;
45578;SDS011;31293;51.390;12.254;2024-01-10T00:07:02;61.03;;;26.67;;
45578;SDS011;31293;51.390;12.254;2024-01-10T00:09:04;56.40;;;25.63;;
45578;SDS011;31293;51.390;12.254;2024-01-10T00:11:06;56.90;;;25.83;;
45578;SDS011;31293;51.390;12.254;2024-01-10T00:13:09;68.35;;;24.45;;
45578;SDS011;31293;51.390;12.254;2024-01-10T00:15:10;57.42;;;25.85;;
45578;SDS011;31293;51.390;12.254;2024-01-10T00:17:12;61.53;;;26.60;;
45578;SDS011;31293;51.390;12.254;2024-01-10T00:19:14;62.88;;;24.65;;
45578;SDS011;31293;51.390;12.254;2024-01-10T00:21:16;53.92;;;23.35;;
45578;SDS011;31293;51.390;12.254;2024-01-10T00:23:18;57.10;;;24.23;;
45578;SDS011;31293;51.390;12.254;2024-01-10T00:25:20;61.22;;;24.80;;
45578;SDS011;31293;51.390;12.254;2024-01-10T00:27:22;59.70;;;25.42;;
45578;SDS011;31293;51.390;12.254;2024-01-10T00:29:23;53.55;;;24.13;;
45578;SDS011;31293;51.390;12.254;2024-01-10T00:31:26;58.22;;;25.00;;
45578;SDS011;31293;51.390;12.254;2024-01-10T00:33:27;55.05;;;26.08;;
45578;SDS011;31293;51.390;12.254;2024-01-10T00:35:30;52.17;;;23.77;;
45578;SDS011;31293;51.390;12.254;2024-01-10T00:37:32;57.28;;;25.73;;
45578;SDS011;31293;51.390;12.254;2024-01-10T00:39:34;56.13;;;25.00;;
45578;SDS011;31293;51.390;12.254;2024-01-10T00:41:36;58.97;;;25.73;;
45578;SDS011;31293;51.390;12.254;2024-01-10T00:43:37;62.15;;;27.70;;
45578;SDS011;31293;51.390;12.254;2024-01-10T00:45:39;53.72;;;23.60;;
45578;SDS011;31293;51.390;12.254;2024-01-10T00:47:41;46.85;;;23.65;;
45578;SDS011;31293;51.390;12.254;2024-01-10T00:49:43;62.13;;;26.00;;
45578;SDS011;31293;51.390;12.254;2024-01-10T00:51:45;57.03;;;25.65;;
45578;SDS011;31293;51.390;12.254;2024-01-10T00:53:46;60.97;;;24.05;;
45578;SDS011;31293;51.390;12.254;2024-01-10T00:55:48;63.05;;;24.20;;
45578;SDS011;31293;51.390;12.254;2024-01-10T00:57:50;53.95;;;24.13;;
45578;SDS011;31293;51.390;12.254;2024-01-10T00:59:52;64.50;;;24.17;;
45578;SDS011;31293;51.390;12.254;2024-01-10T01:01:53;65.05;;;26.02;;
45578;SDS011;31293;51.390;12.254;2024-01-10T01:03:55;53.50;;;24.50;;
45578;SDS011;31293;51.390;12.254;2024-01-10T01:05:58;50.63;;;23.00;;
45578;SDS011;31293;51.390;12.254;2024-01-10T01:08:01;56.15;;;25.60;;
45578;SDS011;31293;51.390;12.254;2024-01-10T01:10:03;52.88;;;23.70;;
45578;SDS011;31293;51.390;12.254;2024-01-10T01:12:05;55.33;;;24.15;;
45578;SDS011;31293;51.390;12.254;2024-01-10T01:14:07;46.40;;;22.80;;
45578;SDS011;31293;51.390;12.254;2024-01-10T01:16:10;68.97;;;25.65;;
45578;SDS011;31293;51.390;12.254;2024-01-10T01:18:12;47.93;;;22.30;;
45578;SDS011;31293;51.390;12.254;2024-01-10T01:20:14;57.03;;;22.60;;
45578;SDS011;31293;51.390;12.254;2024-01-10T01:22:16;59.80;;;23.83;;
45578;SDS011;31293;51.390;12.254;2024-01-10T01:24:18;54.55;;;21.52;;
45578;SDS011;31293;51.390;12.254;2024-01-10T01:26:20;51.42;;;22.73;;
45578;SDS011;31293;51.390;12.254;2024-01-10T01:28:22;53.55;;;24.45;;
45578;SDS011;31293;51.390;12.254;2024-01-10T01:30:25;50.77;;;21.43;;
45578;SDS011;31293;51.390;12.254;2024-01-10T01:32:27;49.80;;;22.60;;
45578;SDS011;31293;51.390;12.254;2024-01-10T01:34:29;50.40;;;22.38;;
45578;SDS011;31293;51.390;12.254;2024-01-10T01:36:31;49.78;;;23.23;;
45578;SDS011;31293;51.390;12.254;2024-01-10T01:38:33;47.90;;;21.00;;
45578;SDS011;31293;51.390;12.254;2024-01-10T01:40:36;50.30;;;15.88;;
45578;SDS011;31293;51.390;12.254;2024-01-10T01:42:38;50.10;;;22.25;;
45578;SDS011;31293;51.390;12.254;2024-01-10T01:44:40;52.85;;;24.83;;
45578;SDS011;31293;51.390;12.254;2024-01-10T01:46:42;50.97;;;23.00;;
45578;SDS011;31293;51.390;12.254;2024-01-10T01:48:44;54.90;;;23.50;;
45578;SDS011;31293;51.390;12.254;2024-01-10T01:50:48;53.40;;;23.67;;
45578;SDS011;31293;51.390;12.254;2024-01-10T01:52:52;62.65;;;24.13;;
45578;SDS011;31293;51.390;12.254;2024-01-10T01:54:54;60.90;;;27.85;;
45578;SDS011;31293;51.390;12.254;2024-01-10T01:56:56;58.90;;;25.65;;
45578;SDS011;31293;51.390;12.254;2024-01-10T01:58:58;52.53;;;24.75;;
45578;SDS011;31293;51.390;12.254;2024-01-10T02:01:01;66.15;;;27.65;;
45578;SDS011;31293;51.390;12.254;2024-01-10T02:03:05;51.75;;;24.02;;
45578;SDS011;31293;51.390;12.254;2024-01-10T02:05:08;61.42;;;27.42;;
45578;SDS011;31293;51.390;12.254;2024-01-10T02:07:10;59.60;;;20.95;;
45578;SDS011;31293;51.390;12.254;2024-01-10T02:09:13;60.88;;;23.73;;
45578;SDS011;31293;51.390;12.254;2024-01-10T02:11:15;57.67;;;27.58;;
45578;SDS011;31293;51.390;12.254;2024-01-10T02:13:17;58.80;;;25.98;;
45578;SDS011;31293;51.390;12.254;2024-01-10T02:15:19;61.08;;;25.85;;
45578;SDS011;31293;51.390;12.254;2024-01-10T02:17:21;58.92;;;23.75;;
45578;SDS011;31293;51.390;12.254;2024-01-10T02:19:23;60.70;;;25.13;;
45578;SDS011;31293;51.390;12.254;2024-01-10T02:21:28;69.30;;;24.42;;
45578;SDS011;31293;51.390;12.254;2024-01-10T02:23:29;57.35;;;27.27;;
45578;SDS011;31293;51.390;12.254;2024-01-10T02:25:31;55.05;;;24.98;;
45578;SDS011;31293;51.390;12.254;2024-01-10T02:27:34;49.58;;;22.73;;
45578;SDS011;31293;51.390;12.254;2024-01-10T02:29:39;58.22;;;24.30;;
45578;SDS011;31293;51.390;12.254;2024-01-10T02:31:41;55.95;;;25.27;;
45578;SDS011;31293;51.390;12.254;2024-01-10T02:33:42;54.15;;;23.40;;
45578;SDS011;31293;51.390;12.254;2024-01-10T02:35:44;61.22;;;25.88;;
45578;SDS011;31293;51.390;12.254;2024-01-10T02:37:46;63.08;;;25.35;;
45578;SDS011;31293;51.390;12.254;2024-01-10T02:39:51;54.78;;;21.75;;
45578;SDS011;31293;51.390;12.254;2024-01-10T02:41:53;56.42;;;23.30;;
45578;SDS011;31293;51.390;12.254;2024-01-10T02:43:55;57.47;;;25.08;;
45578;SDS011;31293;51.390;12.254;2024-01-10T02:46:00;53.75;;;24.95;;
45578;SDS011;31293;51.390;12.254;2024-01-10T02:48:02;48.60;;;23.83;;
45578;SDS011;31293;51.390;12.254;2024-01-10T02:50:04;61.47;;;23.25;;
45578;SDS011;31293;51.390;12.254;2024-01-10T02:52:07;52.10;;;23.15;;
45578;SDS011;31293;51.390;12.254;2024-01-10T02:54:08;64.93;;;24.35;;
45578;SDS011;31293;51.390;12.254;2024-01-10T02:56:10;62.33;;;23.42;;
45578;SDS011;31293;51.390;12.254;2024-01-10T02:58:12;61.25;;;26.13;;
45578;SDS011;31293;51.390;12.254;2024-01-10T03:00:14;59.00;;;26.20;;
45578;SDS011;31293;51.390;12.254;2024-01-10T03:02:16;58.15;;;23.70;;
45578;SDS011;31293;51.390;12.254;2024-01-10T03:04:18;58.70;;;24.40;;
45578;SDS011;31293;51.390;12.254;2024-01-10T03:06:20;66.30;;;27.10;;
45578;SDS011;31293;51.390;12.254;2024-01-10T03:08:22;57.28;;;26.63;;
45578;SDS011;31293;51.390;12.254;2024-01-10T03:10:24;73.68;;;27.33;;
45578;SDS011;31293;51.390;12.254;2024-01-10T03:12:25;61.83;;;27.30;;
45578;SDS011;31293;51.390;12.254;2024-01-10T03:14:27;60.97;;;26.75;;
45578;SDS011;31293;51.390;12.254;2024-01-10T03:16:32;56.85;;;23.20;;
45578;SDS011;31293;51.390;12.254;2024-01-10T03:18:34;58.70;;;26.98;;
45578;SDS011;31293;51.390;12.254;2024-01-10T03:20:36;59.25;;;27.73;;
45578;SDS011;31293;51.390;12.254;2024-01-10T03:22:38;59.03;;;26.17;;
45578;SDS011;31293;51.390;12.254;2024-01-10T03:24:40;62.50;;;26.65;;
45578;SDS011;31293;51.390;12.254;2024-01-10T03:26:41;55.08;;;25.40;;
45578;SDS011;31293;51.390;12.254;2024-01-10T03:28:43;59.63;;;25.33;;
45578;SDS011;31293;51.390;12.254;2024-01-10T03:30:45;53.08;;;26.77;;
45578;SDS011;31293;51.390;12.254;2024-01-10T03:32:47;64.60;;;27.63;;
45578;SDS011;31293;51.390;12.254;2024-01-10T03:34:49;55.30;;;26.35;;
45578;SDS011;31293;51.390;12.254;2024-01-10T03:36:52;67.20;;;28.25;;
45578;SDS011;31293;51.390;12.254;2024-01-10T03:38:54;65.55;;;27.48;;
45578;SDS011;31293;51.390;12.254;2024-01-10T03:40:57;57.70;;;25.75;;
45578;SDS011;31293;51.390;12.254;2024-01-10T03:42:59;60.78;;;27.90;;
45578;SDS011;31293;51.390;12.254;2024-01-10T03:45:01;67.07;;;28.60;;
45578;SDS011;31293;51.390;12.254;2024-01-10T03:47:03;66.10;;;26.95;;
45578;SDS011;31293;51.390;12.254;2024-01-10T03:49:04;73.57;;;25.77;;
45578;SDS011;31293;51.390;12.254;2024-01-10T03:51:06;76.38;;;28.13;;
45578;SDS011;31293;51.390;12.254;2024-01-10T03:53:08;68.20;;;27.98;;
45578;SDS011;31293;51.390;12.254;2024-01-10T03:55:11;68.47;;;25.90;;
45578;SDS011;31293;51.390;12.254;2024-01-10T03:57:16;70.82;;;27.60;;
45578;SDS011;31293;51.390;12.254;2024-01-10T03:59:18;71.07;;;26.65;;
45578;SDS011;31293;51.390;12.254;2024-01-10T04:01:23;82.07;;;26.95;;
45578;SDS011;31293;51.390;12.254;2024-01-10T04:03:25;76.20;;;26.77;;
45578;SDS011;31293;51.390;12.254;2024-01-10T04:05:27;73.00;;;26.02;;
45578;SDS011;31293;51.390;12.254;2024-01-10T04:07:29;60.70;;;22.63;;
45578;SDS011;31293;51.390;12.254;2024-01-10T04:09:31;81.47;;;25.88;;
45578;SDS011;31293;51.390;12.254;2024-01-10T04:11:33;74.03;;;29.45;;
45578;SDS011;31293;51.390;12.254;2024-01-10T04:13:35;74.68;;;29.50;;
45578;SDS011;31293;51.390;12.254;2024-01-10T04:15:37;71.05;;;26.30;;
45578;SDS011;31293;51.390;12.254;2024-01-10T04:17:39;71.13;;;25.85;;
45578;SDS011;31293;51.390;12.254;2024-01-10T04:19:42;78.68;;;28.30;;
45578;SDS011;31293;51.390;12.254;2024-01-10T04:21:44;64.05;;;25.15;;
45578;SDS011;31293;51.390;12.254;2024-01-10T04:23:45;67.18;;;26.33;;
45578;SDS011;31293;51.390;12.254;2024-01-10T04:25:47;63.45;;;25.35;;
45578;SDS011;31293;51.390;12.254;2024-01-10T04:27:49;66.13;;;25.33;;
45578;SDS011;31293;51.390;12.254;2024-01-10T04:29:51;70.82;;;26.83;;
45578;SDS011;31293;51.390;12.254;2024-01-10T04:31:54;72.90;;;26.60;;
45578;SDS011;31293;51.390;12.254;2024-01-10T04:33:56;63.15;;;26.80;;
45578;SDS011;31293;51.390;12.254;2024-01-10T04:35:58;71.95;;;27.30;;
45578;SDS011;31293;51.390;12.254;2024-01-10T04:37:59;62.10;;;24.90;;
45578;SDS011;31293;51.390;12.254;2024-01-10T04:40:01;67.20;;;23.45;;
45578;SDS011;31293;51.390;12.254;2024-01-10T04:42:06;61.47;;;24.38;;
45578;SDS011;31293;51.390;12.254;2024-01-10T04:44:08;69.55;;;25.48;;
45578;SDS011;31293;51.390;12.254;2024-01-10T04:46:10;62.47;;;25.10;;
45578;SDS011;31293;51.390;12.254;2024-01-10T04:48:12;60.55;;;26.27;;
45578;SDS011;31293;51.390;12.254;2024-01-10T04:50:14;68.88;;;25.27;;
45578;SDS011;31293;51.390;12.254;2024-01-10T04:52:16;55.25;;;23.77;;
45578;SDS011;31293;51.390;12.254;2024-01-10T04:54:18;52.45;;;24.20;;
45578;SDS011;31293;51.390;12.254;2024-01-10T04:56:19;58.58;;;24.50;;
45578;SDS011;31293;51.390;12.254;2024-01-10T04:58:21;52.95;;;21.60;;
45578;SDS011;31293;51.390;12.254;2024-01-10T05:00:23;56.35;;;22.52;;
45578;SDS011;31293;51.390;12.254;2024-01-10T05:02:25;78.20;;;25.73;;
45578;SDS011;31293;51.390;12.254;2024-01-10T05:04:27;60.38;;;24.75;;
45578;SDS011;31293;51.390;12.254;2024-01-10T05:06:29;72.22;;;25.88;;
45578;SDS011;31293;51.390;12.254;2024-01-10T05:08:32;55.90;;;24.35;;
45578;SDS011;31293;51.390;12.254;2024-01-10T05:10:34;57.30;;;22.38;;
45578;SDS011;31293;51.390;12.254;2024-01-10T05:12:36;56.50;;;23.63;;
45578;SDS011;31293;51.390;12.254;2024-01-10T05:14:37;70.97;;;24.83;;
45578;SDS011;31293;51.390;12.254;2024-01-10T05:16:39;58.88;;;24.42;;
45578;SDS011;31293;51.390;12.254;2024-01-10T05:18:41;48.10;;;20.58;;
45578;SDS011;31293;51.390;12.254;2024-01-10T05:20:43;51.80;;;21.80;;
45578;SDS011;31293;51.390;12.254;2024-01-10T05:22:44;52.92;;;22.45;;
45578;SDS011;31293;51.390;12.254;2024-01-10T05:24:47;60.00;;;24.50;;
45578;SDS011;31293;51.390;12.254;2024-01-10T05:26:49;62.03;;;22.85;;
45578;SDS011;31293;51.390;12.254;2024-01-10T05:28:53;52.95;;;22.42;;
45578;SDS011;31293;51.390;12.254;2024-01-10T05:30:54;61.42;;;24.25;;
45578;SDS011;31293;51.390;12.254;2024-01-10T05:32:56;54.72;;;21.58;;
45578;SDS011;31293;51.390;12.254;2024-01-10T05:34:59;57.08;;;21.75;;
45578;SDS011;31293;51.390;12.254;2024-01-10T05:37:01;58.35;;;21.88;;
45578;SDS011;31293;51.390;12.254;2024-01-10T05:39:03;49.78;;;21.35;;
45578;SDS011;31293;51.390;12.254;2024-01-10T05:41:05;48.78;;;22.33;;
45578;SDS011;31293;51.390;12.254;2024-01-10T05:43:07;65.97;;;22.90;;
45578;SDS011;31293;51.390;12.254;2024-01-10T05:45:11;53.13;;;24.48;;
45578;SDS011;31293;51.390;12.254;2024-01-10T05:47:13;59.35;;;24.90;;
45578;SDS011;31293;51.390;12.254;2024-01-10T05:49:15;67.47;;;23.27;;
45578;SDS011;31293;51.390;12.254;2024-01-10T05:51:17;60.45;;;24.63;;
45578;SDS011;31293;51.390;12.254;2024-01-10T05:53:19;53.28;;;24.08;;
45578;SDS011;31293;51.390;12.254;2024-01-10T05:55:21;47.50;;;21.17;;
45578;SDS011;31293;51.390;12.254;2024-01-10T05:57:24;56.45;;;24.60;;
45578;SDS011;31293;51.390;12.254;2024-01-10T05:59:26;57.50;;;24.52;;
45578;SDS011;31293;51.390;12.254;2024-01-10T06:03:32;59.25;;;22.63;;
45578;SDS011;31293;51.390;12.254;2024-01-10T06:05:34;58.38;;;23.52;;
45578;SDS011;31293;51.390;12.254;2024-01-10T06:07:36;54.22;;;22.90;;
45578;SDS011;31293;51.390;12.254;2024-01-10T06:09:38;60.35;;;23.60;;
45578;SDS011;31293;51.390;12.254;2024-01-10T06:11:41;59.72;;;25.05;;
45578;SDS011;31293;51.390;12.254;2024-01-10T06:13:43;59.88;;;22.88;;
45578;SDS011;31293;51.390;12.254;2024-01-10T06:15:54;60.13;;;23.35;;
45578;SDS011;31293;51.390;12.254;2024-01-10T06:17:56;48.05;;;23.67;;
45578;SDS011;31293;51.390;12.254;2024-01-10T06:20:01;74.03;;;26.10;;
45578;SDS011;31293;51.390;12.254;2024-01-10T06:24:06;59.28;;;23.70;;
45578;SDS011;31293;51.390;12.254;2024-01-10T06:26:11;63.55;;;22.52;;
45578;SDS011;31293;51.390;12.254;2024-01-10T06:28:13;65.53;;;23.02;;
45578;SDS011;31293;51.390;12.254;2024-01-10T06:30:15;73.43;;;26.02;;
45578;SDS011;31293;51.390;12.254;2024-01-10T06:32:18;57.35;;;24.23;;
45578;SDS011;31293;51.390;12.254;2024-01-10T06:34:20;56.28;;;28.13;;
45578;SDS011;31293;51.390;12.254;2024-01-10T06:36:21;65.60;;;24.75;;
45578;SDS011;31293;51.390;12.254;2024-01-10T06:38:23;60.70;;;23.40;;
45578;SDS011;31293;51.390;12.254;2024-01-10T06:40:25;64.20;;;24.58;;
45578;SDS011;31293;51.390;12.254;2024-01-10T06:42:27;62.17;;;23.40;;
45578;SDS011;31293;51.390;12.254;2024-01-10T06:44:30;64.18;;;26.15;;
45578;SDS011;31293;51.390;12.254;2024-01-10T06:46:32;63.40;;;27.55;;
45578;SDS011;31293;51.390;12.254;2024-01-10T06:48:34;61.58;;;26.90;;
45578;SDS011;31293;51.390;12.254;2024-01-10T06:50:40;71.38;;;27.05;;
45578;SDS011;31293;51.390;12.254;2024-01-10T06:52:42;72.40;;;26.67;;
45578;SDS011;31293;51.390;12.254;2024-01-10T06:54:44;53.00;;;24.67;;
45578;SDS011;31293;51.390;12.254;2024-01-10T06:56:46;52.00;;;23.10;;
45578;SDS011;31293;51.390;12.254;2024-01-10T06:58:48;57.63;;;25.55;;
45578;SDS011;31293;51.390;12.254;2024-01-10T07:00:50;60.92;;;23.30;;
45578;SDS011;31293;51.390;12.254;2024-01-10T07:02:53;54.97;;;25.17;;
45578;SDS011;31293;51.390;12.254;2024-01-10T07:04:55;68.40;;;27.10;;
45578;SDS011;31293;51.390;12.254;2024-01-10T07:06:56;60.95;;;24.95;;
45578;SDS011;31293;51.390;12.254;2024-01-10T07:08:58;73.53;;;24.90;;
45578;SDS011;31293;51.390;12.254;2024-01-10T07:11:00;61.47;;;26.45;;
45578;SDS011;31293;51.390;12.254;2024-01-10T07:13:02;58.17;;;24.95;;
45578;SDS011;31293;51.390;12.254;2024-01-10T07:15:05;65.18;;;26.42;;
45578;SDS011;31293;51.390;12.254;2024-01-10T07:17:08;55.88;;;25.98;;
45578;SDS011;31293;51.390;12.254;2024-01-10T07:19:10;57.95;;;26.45;;
45578;SDS011;31293;51.390;12.254;2024-01-10T07:21:17;62.90;;;26.40;;
45578;SDS011;31293;51.390;12.254;2024-01-10T07:23:19;63.70;;;26.52;;
45578;SDS011;31293;51.390;12.254;2024-01-10T07:25:21;66.85;;;26.80;;
45578;SDS011;31293;51.390;12.254;2024-01-10T07:27:26;55.83;;;24.25;;
45578;SDS011;31293;51.390;12.254;2024-01-10T07:29:28;54.33;;;22.65;;
45578;SDS011;31293;51.390;12.254;2024-01-10T07:31:30;63.28;;;23.05;;
45578;SDS011;31293;51.390;12.254;2024-01-10T07:33:32;55.55;;;24.40;;
45578;SDS011;31293;51.390;12.254;2024-01-10T07:35:36;63.22;;;25.75;;
45578;SDS011;31293;51.390;12.254;2024-01-10T07:37:40;46.45;;;18.55;;
45578;SDS011;31293;51.390;12.254;2024-01-10T07:39:43;57.47;;;24.77;;
45578;SDS011;31293;51.390;12.254;2024-01-10T07:41:45;52.28;;;24.75;;
45578;SDS011;31293;51.390;12.254;2024-01-10T07:43:47;56.75;;;24.25;;
45578;SDS011;31293;51.390;12.254;2024-01-10T07:45:50;58.78;;;26.02;;
45578;SDS011;31293;51.390;12.254;2024-01-10T07:47:52;56.05;;;24.10;;
45578;SDS011;31293;51.390;12.254;2024-01-10T07:49:54;62.78;;;25.45;;
45578;SDS011;31293;51.390;12.254;2024-01-10T07:51:56;52.88;;;23.25;;
45578;SDS011;31293;51.390;12.254;2024-01-10T07:53:58;64.88;;;26.88;;
45578;SDS011;31293;51.390;12.254;2024-01-10T07:56:01;62.63;;;24.73;;
45578;SDS011;31293;51.390;12.254;2024-01-10T07:58:03;67.90;;;25.35;;
45578;SDS011;31293;51.390;12.254;2024-01-10T08:00:06;57.33;;;24.13;;
45578;SDS011;31293;51.390;12.254;2024-01-10T08:02:12;56.28;;;24.63;;
45578;SDS011;31293;51.390;12.254;2024-01-10T08:04:14;60.60;;;24.42;;
45578;SDS011;31293;51.390;12.254;2024-01-10T08:06:16;60.40;;;27.08;;
45578;SDS011;31293;51.390;12.254;2024-01-10T08:08:29;58.08;;;24.60;;
45578;SDS011;31293;51.390;12.254;2024-01-10T08:10:31;60.83;;;26.50;;
45578;SDS011;31293;51.390;12.254;2024-01-10T08:12:37;61.03;;;27.73;;
45578;SDS011;31293;51.390;12.254;2024-01-10T08:14:45;58.75;;;24.38;;
45578;SDS011;31293;51.390;12.254;2024-01-10T08:16:51;56.22;;;27.33;;
45578;SDS011;31293;51.390;12.254;2024-01-10T08:18:55;58.20;;;24.63;;
45578;SDS011;31293;51.390;12.254;2024-01-10T08:20:57;55.83;;;24.77;;
45578;SDS011;31293;51.390;12.254;2024-01-10T08:22:59;66.85;;;28.48;;
45578;SDS011;31293;51.390;12.254;2024-01-10T08:25:01;60.92;;;26.73;;
45578;SDS011;31293;51.390;12.254;2024-01-10T08:27:04;67.28;;;28.98;;
45578;SDS011;31293;51.390;12.254;2024-01-10T08:29:06;67.10;;;28.77;;
45578;SDS011;31293;51.390;12.254;2024-01-10T08:31:08;53.50;;;24.08;;
45578;SDS011;31293;51.390;12.254;2024-01-10T08:33:10;49.55;;;25.17;;
45578;SDS011;31293;51.390;12.254;2024-01-10T08:35:12;65.40;;;27.90;;
45578;SDS011;31293;51.390;12.254;2024-01-10T08:37:14;60.28;;;27.63;;
45578;SDS011;31293;51.390;12.254;2024-01-10T08:39:18;64.60;;;28.00;;
45578;SDS011;31293;51.390;12.254;2024-01-10T08:41:20;57.03;;;26.95;;
45578;SDS011;31293;51.390;12.254;2024-01-10T08:43:22;61.88;;;25.77;;
45578;SDS011;31293;51.390;12.254;2024-01-10T08:45:24;59.70;;;27.05;;
45578;SDS011;31293;51.390;12.254;2024-01-10T08:47:26;64.65;;;27.63;;
45578;SDS011;31293;51.390;12.254;2024-01-10T08:49:28;60.92;;;26.92;;
45578;SDS011;31293;51.390;12.254;2024-01-10T08:51:30;63.38;;;29.52;;
45578;SDS011;31293;51.390;12.254;2024-01-10T08:53:32;58.53;;;28.45;;
45578;SDS011;31293;51.390;12.254;2024-01-10T08:55:34;68.78;;;28.25;;
45578;SDS011;31293;51.390;12.254;2024-01-10T08:57:38;69.30;;;29.05;;
45578;SDS011;31293;51.390;12.254;2024-01-10T08:59:43;69.10;;;28.65;;
45578;SDS011;31293;51.390;12.254;2024-01-10T09:01:45;53.30;;;26.52;;
45578;SDS011;31293;51.390;12.254;2024-01-10T09:03:47;61.95;;;26.38;;
45578;SDS011;31293;51.390;12.254;2024-01-10T09:05:50;59.38;;;27.10;;
45578;SDS011;31293;51.390;12.254;2024-01-10T09:08:08;58.88;;;29.00;;
45578;SDS011;31293;51.390;12.254;2024-01-10T09:10:09;57.50;;;28.58;;
45578;SDS011;31293;51.390;12.254;2024-01-10T09:12:12;60.03;;;29.80;;
45578;SDS011;31293;51.390;12.254;2024-01-10T09:14:13;67.53;;;30.27;;
45578;SDS011;31293;51.390;12.254;2024-01-10T09:16:16;58.55;;;27.73;;
45578;SDS011;31293;51.390;12.254;2024-01-10T09:20:21;57.95;;;27.77;;
45578;SDS011;31293;51.390;12.254;2024-01-10T09:22:23;71.93;;;31.83;;
45578;SDS011;31293;51.390;12.254;2024-01-10T09:24:25;64.15;;;30.55;;
45578;SDS011;31293;51.390;12.254;2024-01-10T09:26:31;69.15;;;29.42;;
45578;SDS011;31293;51.390;12.254;2024-01-10T09:28:33;74.53;;;29.90;;
45578;SDS011;31293;51.390;12.254;2024-01-10T09:30:35;71.65;;;30.50;;
45578;SDS011;31293;51.390;12.254;2024-01-10T09:32:41;69.03;;;28.80;;
45578;SDS011;31293;51.390;12.254;2024-01-10T09:34:43;65.88;;;29.00;;
45578;SDS011;31293;51.390;12.254;2024-01-10T09:36:45;67.03;;;31.80;;
45578;SDS011;31293;51.390;12.254;2024-01-10T09:38:47;65.15;;;30.35;;
45578;SDS011;31293;51.390;12.254;2024-01-10T09:40:49;61.85;;;29.33;;
45578;SDS011;31293;51.390;12.254;2024-01-10T09:42:52;67.05;;;30.92;;
45578;SDS011;31293;51.390;12.254;2024-01-10T09:44:55;69.60;;;31.52;;
45578;SDS011;31293;51.390;12.254;2024-01-10T09:46:57;61.25;;;31.95;;
45578;SDS011;31293;51.390;12.254;2024-01-10T09:48:59;75.63;;;32.90;;
45578;SDS011;31293;51.390;12.254;2024-01-10T09:51:03;63.38;;;30.60;;
45578;SDS011;31293;51.390;12.254;2024-01-10T09:53:06;60.83;;;28.92;;
45578;SDS011;31293;51.390;12.254;2024-01-10T09:55:11;57.33;;;29.75;;
45578;SDS011;31293;51.390;12.254;2024-01-10T09:57:14;70.43;;;32.08;;
45578;SDS011;31293;51.390;12.254;2024-01-10T09:59:16;62.22;;;29.02;;
45578;SDS011;31293;51.390;12.254;2024-01-10T10:01:18;65.57;;;30.35;;
45578;SDS011;31293;51.390;12.254;2024-01-10T10:03:22;60.85;;;31.05;;
45578;SDS011;31293;51.390;12.254;2024-01-10T10:05:25;67.63;;;30.13;;
45578;SDS011;31293;51.390;12.254;2024-01-10T10:07:27;55.35;;;29.45;;
45578;SDS011;31293;51.390;12.254;2024-01-10T10:09:30;60.92;;;32.00;;
45578;SDS011;31293;51.390;12.254;2024-01-10T10:11:32;72.35;;;32.20;;
45578;SDS011;31293;51.390;12.254;2024-01-10T10:13:34;71.38;;;32.42;;
45578;SDS011;31293;51.390;12.254;2024-01-10T10:15:42;63.47;;;32.10;;
45578;SDS011;31293;51.390;12.254;2024-01-10T10:17:44;67.15;;;32.92;;
45578;SDS011;31293;51.390;12.254;2024-01-10T10:19:48;65.97;;;32.28;;
45578;SDS011;31293;51.390;12.254;2024-01-10T10:21:51;66.50;;;32.92;;
45578;SDS011;31293;51.390;12.254;2024-01-10T10:23:59;59.63;;;30.20;;
45578;SDS011;31293;51.390;12.254;2024-01-10T10:28:28;65.15;;;31.13;;
45578;SDS011;31293;51.390;12.254;2024-01-10T10:30:32;62.22;;;33.10;;
45578;SDS011;31293;51.390;12.254;2024-01-10T10:32:35;51.30;;;25.77;;
45578;SDS011;31293;51.390;12.254;2024-01-10T10:34:37;66.18;;;31.20;;
45578;SDS011;31293;51.390;12.254;2024-01-10T10:36:39;68.53;;;34.30;;
45578;SDS011;31293;51.390;12.254;2024-01-10T10:40:45;65.35;;;31.83;;
45578;SDS011;31293;51.390;12.254;2024-01-10T10:42:49;65.95;;;32.90;;
45578;SDS011;31293;51.390;12.254;2024-01-10T10:45:00;75.72;;;34.13;;
45578;SDS011;31293;51.390;12.254;2024-01-10T10:47:04;60.75;;;31.67;;
45578;SDS011;31293;51.390;12.254;2024-01-10T10:49:13;65.22;;;33.88;;
45578;SDS011;31293;51.390;12.254;2024-01-10T10:51:25;67.90;;;32.85;;
45578;SDS011;31293;51.390;12.254;2024-01-10T10:53:34;62.83;;;31.73;;
45578;SDS011;31293;51.390;12.254;2024-01-10T10:55:40;62.17;;;32.78;;
45578;SDS011;31293;51.390;12.254;2024-01-10T10:57:47;70.90;;;34.30;;
45578;SDS011;31293;51.390;12.254;2024-01-10T11:00:05;69.22;;;35.35;;
45578;SDS011;31293;51.390;12.254;2024-01-10T11:02:09;70.30;;;38.08;;
45578;SDS011;31293;51.390;12.254;2024-01-10T11:04:12;67.68;;;35.03;;
45578;SDS011;31293;51.390;12.254;2024-01-10T11:06:17;68.72;;;38.90;;
45578;SDS011;31293;51.390;12.254;2024-01-10T11:08:20;79.90;;;38.70;;
45578;SDS011;31293;51.390;12.254;2024-01-10T11:10:29;64.00;;;37.85;;
45578;SDS011;31293;51.390;12.254;2024-01-10T11:17:44;60.22;;;37.63;;
45578;SDS011;31293;51.390;12.254;2024-01-10T11:24:24;62.90;;;37.67;;
45578;SDS011;31293;51.390;12.254;2024-01-10T11:26:26;64.07;;;37.83;;
45578;SDS011;31293;51.390;12.254;2024-01-10T11:28:31;55.40;;;38.00;;
45578;SDS011;31293;51.390;12.254;2024-01-10T11:32:37;60.13;;;37.13;;
45578;SDS011;31293;51.390;12.254;2024-01-10T11:34:48;62.42;;;38.08;;
45578;SDS011;31293;51.390;12.254;2024-01-10T11:37:09;53.75;;;35.72;;
45578;SDS011;31293;51.390;12.254;2024-01-10T11:39:14;57.05;;;35.95;;
45578;SDS011;31293;51.390;12.254;2024-01-10T11:41:27;56.40;;;36.25;;
45578;SDS011;31293;51.390;12.254;2024-01-10T11:43:37;58.78;;;36.50;;
45578;SDS011;31293;51.390;12.254;2024-01-10T11:45:49;56.05;;;36.60;;
45578;SDS011;31293;51.390;12.254;2024-01-10T11:47:52;51.20;;;34.03;;
45578;SDS011;31293;51.390;12.254;2024-01-10T11:49:55;56.88;;;36.42;;
45578;SDS011;31293;51.390;12.254;2024-01-10T11:51:58;54.83;;;36.42;;
45578;SDS011;31293;51.390;12.254;2024-01-10T11:56:11;54.45;;;35.78;;
45578;SDS011;31293;51.390;12.254;2024-01-10T11:58:26;50.00;;;34.22;;
45578;SDS011;31293;51.390;12.254;2024-01-10T12:00:28;55.40;;;36.47;;
45578;SDS011;31293;51.390;12.254;2024-01-10T12:02:30;52.08;;;34.03;;
45578;SDS011;31293;51.390;12.254;2024-01-10T12:06:48;51.70;;;34.63;;
45578;SDS011;31293;51.390;12.254;2024-01-10T12:08:50;52.55;;;35.08;;
45578;SDS011;31293;51.390;12.254;2024-01-10T12:10:52;54.92;;;37.28;;
45578;SDS011;31293;51.390;12.254;2024-01-10T12:12:54;61.10;;;38.33;;
45578;SDS011;31293;51.390;12.254;2024-01-10T12:14:56;56.17;;;36.33;;